sensor_id;sensor_type;location;lat;lon;timestamp;P1;durP1;ratioP1;P2;durP2;ratioP2
51214;SDS011;63849;47.546;19.254;2022-12-10T00:01:06;32.10;;;28.65;;
51214;SDS011;63849;47.546;19.254;2022-12-10T00:03:34;30.50;;;26.40;;
51214;SDS011;63849;47.546;19.254;2022-12-10T00:06:04;31.92;;;28.42;;
51214;SDS011;63849;47.546;19.254;2022-12-10T00:11:20;26.15;;;23.27;;
51214;SDS011;63849;47.546;19.254;2022-12-10T00:13:48;25.63;;;22.98;;
51214;SDS011;63849;47.546;19.254;2022-12-10T00:16:15;27.13;;;24.33;;
51214;SDS011;63849;47.546;19.254;2022-12-10T00:18:42;26.90;;;24.05;;
51214;SDS011;63849;47.546;19.254;2022-12-10T00:21:09;25.38;;;21.83;;
51214;SDS011;63849;47.546;19.254;2022-12-10T00:23:36;21.75;;;19.38;;
51214;SDS011;63849;47.546;19.254;2022-12-10T00:28:29;22.48;;;19.48;;
51214;SDS011;63849;47.546;19.254;2022-12-10T00:30:55;22.05;;;18.70;;
51214;SDS011;63849;47.546;19.254;2022-12-10T00:33:21;21.30;;;17.92;;
51214;SDS011;63849;47.546;19.254;2022-12-10T00:35:47;21.23;;;18.92;;
51214;SDS011;63849;47.546;19.254;2022-12-10T00:38:16;28.52;;;22.05;;
51214;SDS011;63849;47.546;19.254;2022-12-10T00:40:41;20.55;;;18.15;;
51214;SDS011;63849;47.546;19.254;2022-12-10T00:43:07;25.23;;;20.52;;
51214;SDS011;63849;47.546;19.254;2022-12-10T00:45:33;29.13;;;23.35;;
51214;SDS011;63849;47.546;19.254;2022-12-10T00:47:58;29.27;;;23.17;;
51214;SDS011;63849;47.546;19.254;2022-12-10T00:50:24;24.88;;;20.73;;
51214;SDS011;63849;47.546;19.254;2022-12-10T00:52:50;27.15;;;22.92;;
51214;SDS011;63849;47.546;19.254;2022-12-10T00:55:16;26.10;;;22.13;;
51214;SDS011;63849;47.546;19.254;2022-12-10T00:57:42;26.40;;;20.70;;
51214;SDS011;63849;47.546;19.254;2022-12-10T01:00:08;32.53;;;23.83;;
51214;SDS011;63849;47.546;19.254;2022-12-10T01:02:34;34.30;;;26.40;;
51214;SDS011;63849;47.546;19.254;2022-12-10T01:05:00;34.20;;;25.05;;
51214;SDS011;63849;47.546;19.254;2022-12-10T01:07:25;30.52;;;24.67;;
51214;SDS011;63849;47.546;19.254;2022-12-10T01:09:51;31.83;;;23.77;;
51214;SDS011;63849;47.546;19.254;2022-12-10T01:12:17;31.60;;;24.27;;
51214;SDS011;63849;47.546;19.254;2022-12-10T01:14:42;28.70;;;22.42;;
51214;SDS011;63849;47.546;19.254;2022-12-10T01:17:08;29.95;;;23.40;;
51214;SDS011;63849;47.546;19.254;2022-12-10T01:19:36;32.58;;;24.70;;
51214;SDS011;63849;47.546;19.254;2022-12-10T01:22:02;34.20;;;23.08;;
51214;SDS011;63849;47.546;19.254;2022-12-10T01:24:29;25.95;;;20.38;;
51214;SDS011;63849;47.546;19.254;2022-12-10T01:26:55;28.63;;;19.52;;
51214;SDS011;63849;47.546;19.254;2022-12-10T01:29:21;29.80;;;20.98;;
51214;SDS011;63849;47.546;19.254;2022-12-10T01:31:50;26.85;;;20.65;;
51214;SDS011;63849;47.546;19.254;2022-12-10T01:34:17;31.42;;;21.10;;
51214;SDS011;63849;47.546;19.254;2022-12-10T01:36:44;31.25;;;22.35;;
51214;SDS011;63849;47.546;19.254;2022-12-10T01:39:14;27.17;;;21.17;;
51214;SDS011;63849;47.546;19.254;2022-12-10T01:41:46;25.38;;;18.65;;
51214;SDS011;63849;47.546;19.254;2022-12-10T01:46:41;23.45;;;18.83;;
51214;SDS011;63849;47.546;19.254;2022-12-10T01:49:10;27.73;;;20.30;;
51214;SDS011;63849;47.546;19.254;2022-12-10T01:51:56;27.25;;;21.00;;
51214;SDS011;63849;47.546;19.254;2022-12-10T01:54:27;60.63;;;41.03;;
51214;SDS011;63849;47.546;19.254;2022-12-10T01:56:59;38.28;;;27.05;;
51214;SDS011;63849;47.546;19.254;2022-12-10T01:59:27;31.90;;;23.33;;
51214;SDS011;63849;47.546;19.254;2022-12-10T02:07:07;39.88;;;26.55;;
51214;SDS011;63849;47.546;19.254;2022-12-10T02:12:38;65.60;;;42.35;;
51214;SDS011;63849;47.546;19.254;2022-12-10T02:15:47;31.73;;;23.58;;
51214;SDS011;63849;47.546;19.254;2022-12-10T02:18:14;44.08;;;32.42;;
51214;SDS011;63849;47.546;19.254;2022-12-10T02:20:48;53.60;;;40.63;;
51214;SDS011;63849;47.546;19.254;2022-12-10T02:23:22;46.38;;;33.25;;
51214;SDS011;63849;47.546;19.254;2022-12-10T02:25:59;31.17;;;23.45;;
51214;SDS011;63849;47.546;19.254;2022-12-10T02:31:01;24.65;;;19.90;;
51214;SDS011;63849;47.546;19.254;2022-12-10T02:33:28;24.73;;;19.48;;
51214;SDS011;63849;47.546;19.254;2022-12-10T02:35:56;21.00;;;17.30;;
51214;SDS011;63849;47.546;19.254;2022-12-10T02:38:29;23.77;;;17.55;;
51214;SDS011;63849;47.546;19.254;2022-12-10T02:41:02;20.55;;;18.33;;
51214;SDS011;63849;47.546;19.254;2022-12-10T02:43:33;20.55;;;17.80;;
51214;SDS011;63849;47.546;19.254;2022-12-10T02:46:00;23.10;;;17.85;;
51214;SDS011;63849;47.546;19.254;2022-12-10T02:48:28;22.50;;;18.55;;
51214;SDS011;63849;47.546;19.254;2022-12-10T02:50:56;21.65;;;18.05;;
51214;SDS011;63849;47.546;19.254;2022-12-10T02:53:21;19.17;;;16.02;;
51214;SDS011;63849;47.546;19.254;2022-12-10T02:55:55;19.25;;;17.02;;
51214;SDS011;63849;47.546;19.254;2022-12-10T02:59:05;20.52;;;16.40;;
51214;SDS011;63849;47.546;19.254;2022-12-10T03:07:22;20.05;;;17.95;;
51214;SDS011;63849;47.546;19.254;2022-12-10T03:09:59;20.95;;;17.90;;
51214;SDS011;63849;47.546;19.254;2022-12-10T03:12:31;22.88;;;18.40;;
51214;SDS011;63849;47.546;19.254;2022-12-10T03:15:03;14.88;;;13.38;;
51214;SDS011;63849;47.546;19.254;2022-12-10T03:17:33;13.35;;;11.80;;
51214;SDS011;63849;47.546;19.254;2022-12-10T03:19:59;14.55;;;13.05;;
51214;SDS011;63849;47.546;19.254;2022-12-10T03:22:26;14.00;;;12.45;;
51214;SDS011;63849;47.546;19.254;2022-12-10T03:24:53;13.60;;;12.13;;
51214;SDS011;63849;47.546;19.254;2022-12-10T03:27:19;13.57;;;12.18;;
51214;SDS011;63849;47.546;19.254;2022-12-10T03:29:49;13.02;;;11.73;;
51214;SDS011;63849;47.546;19.254;2022-12-10T03:32:18;14.25;;;11.82;;
51214;SDS011;63849;47.546;19.254;2022-12-10T03:34:47;13.93;;;11.82;;
51214;SDS011;63849;47.546;19.254;2022-12-10T03:37:16;14.52;;;12.55;;
51214;SDS011;63849;47.546;19.254;2022-12-10T03:39:43;15.13;;;12.75;;
51214;SDS011;63849;47.546;19.254;2022-12-10T03:42:09;17.27;;;14.13;;
51214;SDS011;63849;47.546;19.254;2022-12-10T03:44:36;18.52;;;15.52;;
51214;SDS011;63849;47.546;19.254;2022-12-10T03:47:05;17.42;;;14.98;;
51214;SDS011;63849;47.546;19.254;2022-12-10T03:49:37;21.48;;;17.15;;
51214;SDS011;63849;47.546;19.254;2022-12-10T03:52:03;19.48;;;16.50;;
51214;SDS011;63849;47.546;19.254;2022-12-10T03:54:29;20.23;;;16.88;;
51214;SDS011;63849;47.546;19.254;2022-12-10T03:56:54;19.02;;;15.90;;
51214;SDS011;63849;47.546;19.254;2022-12-10T03:59:20;26.40;;;20.52;;
51214;SDS011;63849;47.546;19.254;2022-12-10T04:01:46;64.95;;;42.25;;
51214;SDS011;63849;47.546;19.254;2022-12-10T04:04:12;68.97;;;36.78;;
51214;SDS011;63849;47.546;19.254;2022-12-10T04:06:38;32.00;;;21.58;;
51214;SDS011;63849;47.546;19.254;2022-12-10T04:09:05;38.17;;;25.98;;
51214;SDS011;63849;47.546;19.254;2022-12-10T04:11:34;65.18;;;49.35;;
51214;SDS011;63849;47.546;19.254;2022-12-10T04:14:00;24.98;;;20.90;;
51214;SDS011;63849;47.546;19.254;2022-12-10T04:16:45;41.03;;;30.90;;
51214;SDS011;63849;47.546;19.254;2022-12-10T04:19:13;48.95;;;38.72;;
51214;SDS011;63849;47.546;19.254;2022-12-10T04:21:40;31.52;;;25.40;;
51214;SDS011;63849;47.546;19.254;2022-12-10T04:24:26;37.78;;;26.83;;
51214;SDS011;63849;47.546;19.254;2022-12-10T04:27:13;49.20;;;35.65;;
51214;SDS011;63849;47.546;19.254;2022-12-10T04:29:47;40.10;;;30.10;;
51214;SDS011;63849;47.546;19.254;2022-12-10T04:32:13;40.97;;;32.58;;
51214;SDS011;63849;47.546;19.254;2022-12-10T04:34:40;33.05;;;28.40;;
51214;SDS011;63849;47.546;19.254;2022-12-10T04:37:06;30.50;;;25.35;;
51214;SDS011;63849;47.546;19.254;2022-12-10T04:39:32;21.35;;;17.73;;
51214;SDS011;63849;47.546;19.254;2022-12-10T04:41:58;23.25;;;17.35;;
51214;SDS011;63849;47.546;19.254;2022-12-10T04:44:25;23.45;;;16.90;;
51214;SDS011;63849;47.546;19.254;2022-12-10T04:46:51;20.58;;;15.40;;
51214;SDS011;63849;47.546;19.254;2022-12-10T04:49:17;20.27;;;16.25;;
51214;SDS011;63849;47.546;19.254;2022-12-10T04:51:43;25.60;;;17.15;;
51214;SDS011;63849;47.546;19.254;2022-12-10T04:54:10;20.20;;;15.15;;
51214;SDS011;63849;47.546;19.254;2022-12-10T04:56:36;21.20;;;15.73;;
51214;SDS011;63849;47.546;19.254;2022-12-10T04:59:05;20.98;;;16.00;;
51214;SDS011;63849;47.546;19.254;2022-12-10T05:01:31;20.42;;;15.57;;
51214;SDS011;63849;47.546;19.254;2022-12-10T05:04:01;24.15;;;16.15;;
51214;SDS011;63849;47.546;19.254;2022-12-10T05:06:30;19.73;;;14.95;;
51214;SDS011;63849;47.546;19.254;2022-12-10T05:08:56;19.33;;;15.20;;
51214;SDS011;63849;47.546;19.254;2022-12-10T05:11:23;19.33;;;14.18;;
51214;SDS011;63849;47.546;19.254;2022-12-10T05:13:51;21.02;;;16.33;;
51214;SDS011;63849;47.546;19.254;2022-12-10T05:16:19;18.33;;;14.18;;
51214;SDS011;63849;47.546;19.254;2022-12-10T05:18:46;19.85;;;14.52;;
51214;SDS011;63849;47.546;19.254;2022-12-10T05:21:12;19.35;;;14.57;;
51214;SDS011;63849;47.546;19.254;2022-12-10T05:23:42;20.77;;;15.95;;
51214;SDS011;63849;47.546;19.254;2022-12-10T05:26:12;21.58;;;16.63;;
51214;SDS011;63849;47.546;19.254;2022-12-10T05:28:46;21.33;;;15.77;;
51214;SDS011;63849;47.546;19.254;2022-12-10T05:31:15;21.15;;;16.90;;
51214;SDS011;63849;47.546;19.254;2022-12-10T05:33:49;20.42;;;15.30;;
51214;SDS011;63849;47.546;19.254;2022-12-10T05:36:17;21.40;;;16.52;;
51214;SDS011;63849;47.546;19.254;2022-12-10T05:38:44;22.10;;;17.20;;
51214;SDS011;63849;47.546;19.254;2022-12-10T05:41:12;21.40;;;16.35;;
51214;SDS011;63849;47.546;19.254;2022-12-10T05:43:42;25.10;;;18.67;;
51214;SDS011;63849;47.546;19.254;2022-12-10T05:46:10;23.98;;;18.10;;
51214;SDS011;63849;47.546;19.254;2022-12-10T05:48:40;26.95;;;19.48;;
51214;SDS011;63849;47.546;19.254;2022-12-10T05:51:06;24.58;;;18.98;;
51214;SDS011;63849;47.546;19.254;2022-12-10T05:53:40;22.75;;;17.48;;
51214;SDS011;63849;47.546;19.254;2022-12-10T05:56:13;24.83;;;18.85;;
51214;SDS011;63849;47.546;19.254;2022-12-10T05:58:41;25.65;;;19.02;;
51214;SDS011;63849;47.546;19.254;2022-12-10T06:01:10;22.30;;;18.08;;
51214;SDS011;63849;47.546;19.254;2022-12-10T06:03:37;23.73;;;18.33;;
51214;SDS011;63849;47.546;19.254;2022-12-10T06:06:04;22.73;;;18.08;;
51214;SDS011;63849;47.546;19.254;2022-12-10T06:08:31;27.38;;;19.58;;
51214;SDS011;63849;47.546;19.254;2022-12-10T06:11:07;25.25;;;19.60;;
51214;SDS011;63849;47.546;19.254;2022-12-10T06:13:35;28.77;;;20.00;;
51214;SDS011;63849;47.546;19.254;2022-12-10T06:16:07;26.95;;;18.98;;
51214;SDS011;63849;47.546;19.254;2022-12-10T06:18:35;27.13;;;20.15;;
51214;SDS011;63849;47.546;19.254;2022-12-10T06:21:02;26.15;;;21.52;;
51214;SDS011;63849;47.546;19.254;2022-12-10T06:23:34;29.88;;;22.52;;
51214;SDS011;63849;47.546;19.254;2022-12-10T06:26:10;27.45;;;21.73;;
51214;SDS011;63849;47.546;19.254;2022-12-10T06:28:39;27.60;;;21.20;;
51214;SDS011;63849;47.546;19.254;2022-12-10T06:31:05;25.90;;;21.60;;
51214;SDS011;63849;47.546;19.254;2022-12-10T06:33:31;28.55;;;22.13;;
51214;SDS011;63849;47.546;19.254;2022-12-10T06:35:57;27.30;;;21.60;;
51214;SDS011;63849;47.546;19.254;2022-12-10T06:38:23;28.65;;;21.95;;
51214;SDS011;63849;47.546;19.254;2022-12-10T06:40:49;29.15;;;22.58;;
51214;SDS011;63849;47.546;19.254;2022-12-10T06:43:15;27.42;;;22.88;;
51214;SDS011;63849;47.546;19.254;2022-12-10T06:45:41;26.20;;;21.08;;
51214;SDS011;63849;47.546;19.254;2022-12-10T06:48:07;27.58;;;20.73;;
51214;SDS011;63849;47.546;19.254;2022-12-10T06:50:33;29.15;;;22.58;;
51214;SDS011;63849;47.546;19.254;2022-12-10T06:53:00;31.40;;;24.05;;
51214;SDS011;63849;47.546;19.254;2022-12-10T06:55:25;28.50;;;22.73;;
51214;SDS011;63849;47.546;19.254;2022-12-10T06:57:52;29.83;;;23.80;;
51214;SDS011;63849;47.546;19.254;2022-12-10T07:00:19;28.88;;;23.95;;
51214;SDS011;63849;47.546;19.254;2022-12-10T07:02:45;30.48;;;24.75;;
51214;SDS011;63849;47.546;19.254;2022-12-10T07:05:12;32.70;;;25.60;;
51214;SDS011;63849;47.546;19.254;2022-12-10T07:07:38;29.75;;;24.52;;
51214;SDS011;63849;47.546;19.254;2022-12-10T07:10:04;31.63;;;24.42;;
51214;SDS011;63849;47.546;19.254;2022-12-10T07:12:30;29.77;;;24.35;;
51214;SDS011;63849;47.546;19.254;2022-12-10T07:14:56;29.73;;;24.27;;
51214;SDS011;63849;47.546;19.254;2022-12-10T07:17:21;28.15;;;24.67;;
51214;SDS011;63849;47.546;19.254;2022-12-10T07:19:47;28.30;;;23.73;;
51214;SDS011;63849;47.546;19.254;2022-12-10T07:22:13;31.50;;;26.52;;
51214;SDS011;63849;47.546;19.254;2022-12-10T07:24:38;30.88;;;25.10;;
51214;SDS011;63849;47.546;19.254;2022-12-10T07:27:05;28.52;;;24.05;;
51214;SDS011;63849;47.546;19.254;2022-12-10T07:29:31;30.08;;;24.25;;
51214;SDS011;63849;47.546;19.254;2022-12-10T07:31:57;29.15;;;24.90;;
51214;SDS011;63849;47.546;19.254;2022-12-10T07:34:23;28.80;;;24.67;;
51214;SDS011;63849;47.546;19.254;2022-12-10T07:36:48;30.58;;;24.63;;
51214;SDS011;63849;47.546;19.254;2022-12-10T07:39:14;30.27;;;25.20;;
51214;SDS011;63849;47.546;19.254;2022-12-10T07:41:43;30.00;;;25.67;;
51214;SDS011;63849;47.546;19.254;2022-12-10T07:44:21;31.30;;;26.48;;
51214;SDS011;63849;47.546;19.254;2022-12-10T07:46:50;35.88;;;28.60;;
51214;SDS011;63849;47.546;19.254;2022-12-10T07:49:16;31.90;;;26.25;;
51214;SDS011;63849;47.546;19.254;2022-12-10T07:51:46;32.67;;;26.08;;
51214;SDS011;63849;47.546;19.254;2022-12-10T07:54:13;31.48;;;26.10;;
51214;SDS011;63849;47.546;19.254;2022-12-10T07:56:39;33.05;;;27.08;;
51214;SDS011;63849;47.546;19.254;2022-12-10T07:59:05;34.17;;;27.90;;
51214;SDS011;63849;47.546;19.254;2022-12-10T08:01:31;34.67;;;27.17;;
51214;SDS011;63849;47.546;19.254;2022-12-10T08:03:57;34.13;;;27.08;;
51214;SDS011;63849;47.546;19.254;2022-12-10T08:06:23;31.52;;;26.33;;
51214;SDS011;63849;47.546;19.254;2022-12-10T08:08:49;32.97;;;27.33;;
51214;SDS011;63849;47.546;19.254;2022-12-10T08:11:16;28.98;;;25.40;;
51214;SDS011;63849;47.546;19.254;2022-12-10T08:13:44;31.90;;;26.30;;
51214;SDS011;63849;47.546;19.254;2022-12-10T08:16:14;29.10;;;24.63;;
51214;SDS011;63849;47.546;19.254;2022-12-10T08:18:42;28.08;;;24.40;;
51214;SDS011;63849;47.546;19.254;2022-12-10T08:21:09;27.58;;;23.48;;
51214;SDS011;63849;47.546;19.254;2022-12-10T08:23:36;26.67;;;22.70;;
51214;SDS011;63849;47.546;19.254;2022-12-10T08:26:03;30.15;;;23.67;;
51214;SDS011;63849;47.546;19.254;2022-12-10T08:28:30;25.20;;;21.73;;
51214;SDS011;63849;47.546;19.254;2022-12-10T08:30:56;29.00;;;24.25;;
51214;SDS011;63849;47.546;19.254;2022-12-10T08:33:21;49.00;;;38.78;;
51214;SDS011;63849;47.546;19.254;2022-12-10T08:35:47;39.55;;;33.25;;
51214;SDS011;63849;47.546;19.254;2022-12-10T08:38:13;50.45;;;42.42;;
51214;SDS011;63849;47.546;19.254;2022-12-10T08:40:39;39.78;;;33.65;;
51214;SDS011;63849;47.546;19.254;2022-12-10T08:43:06;57.22;;;46.83;;
51214;SDS011;63849;47.546;19.254;2022-12-10T08:45:32;57.67;;;47.95;;
51214;SDS011;63849;47.546;19.254;2022-12-10T08:47:59;28.52;;;24.02;;
51214;SDS011;63849;47.546;19.254;2022-12-10T08:50:26;29.92;;;24.75;;
51214;SDS011;63849;47.546;19.254;2022-12-10T08:52:53;31.70;;;24.83;;
51214;SDS011;63849;47.546;19.254;2022-12-10T08:55:18;23.85;;;20.02;;
51214;SDS011;63849;47.546;19.254;2022-12-10T08:57:44;22.45;;;19.50;;
51214;SDS011;63849;47.546;19.254;2022-12-10T09:00:10;22.90;;;18.25;;
51214;SDS011;63849;47.546;19.254;2022-12-10T09:02:38;23.83;;;20.38;;
51214;SDS011;63849;47.546;19.254;2022-12-10T09:05:04;21.20;;;18.90;;
51214;SDS011;63849;47.546;19.254;2022-12-10T09:07:30;22.40;;;19.35;;
51214;SDS011;63849;47.546;19.254;2022-12-10T09:09:56;31.45;;;26.65;;
51214;SDS011;63849;47.546;19.254;2022-12-10T09:12:22;36.92;;;28.58;;
51214;SDS011;63849;47.546;19.254;2022-12-10T09:14:48;34.80;;;29.58;;
51214;SDS011;63849;47.546;19.254;2022-12-10T09:17:14;34.45;;;29.23;;
51214;SDS011;63849;47.546;19.254;2022-12-10T09:19:40;32.88;;;27.33;;
51214;SDS011;63849;47.546;19.254;2022-12-10T09:22:05;33.35;;;27.77;;
51214;SDS011;63849;47.546;19.254;2022-12-10T09:24:31;31.45;;;26.70;;
51214;SDS011;63849;47.546;19.254;2022-12-10T09:26:57;29.65;;;25.45;;
51214;SDS011;63849;47.546;19.254;2022-12-10T09:29:22;35.20;;;28.20;;
51214;SDS011;63849;47.546;19.254;2022-12-10T09:31:51;33.03;;;27.00;;
51214;SDS011;63849;47.546;19.254;2022-12-10T09:34:18;80.63;;;30.50;;
51214;SDS011;63849;47.546;19.254;2022-12-10T09:36:44;40.97;;;28.88;;
51214;SDS011;63849;47.546;19.254;2022-12-10T09:39:10;31.73;;;27.35;;
51214;SDS011;63849;47.546;19.254;2022-12-10T09:41:58;32.20;;;26.25;;
51214;SDS011;63849;47.546;19.254;2022-12-10T09:47:24;32.20;;;26.48;;
51214;SDS011;63849;47.546;19.254;2022-12-10T09:52:48;35.63;;;27.98;;
51214;SDS011;63849;47.546;19.254;2022-12-10T09:55:20;40.85;;;30.08;;
51214;SDS011;63849;47.546;19.254;2022-12-10T09:57:56;33.63;;;28.00;;
51214;SDS011;63849;47.546;19.254;2022-12-10T10:02:51;35.20;;;27.83;;
51214;SDS011;63849;47.546;19.254;2022-12-10T10:05:26;29.33;;;25.65;;
51214;SDS011;63849;47.546;19.254;2022-12-10T10:07:55;30.67;;;26.20;;
51214;SDS011;63849;47.546;19.254;2022-12-10T10:10:26;32.28;;;26.55;;
51214;SDS011;63849;47.546;19.254;2022-12-10T10:12:55;31.58;;;26.42;;
51214;SDS011;63849;47.546;19.254;2022-12-10T10:15:29;28.70;;;25.08;;
51214;SDS011;63849;47.546;19.254;2022-12-10T10:17:58;29.92;;;25.45;;
51214;SDS011;63849;47.546;19.254;2022-12-10T10:20:28;29.77;;;25.60;;
51214;SDS011;63849;47.546;19.254;2022-12-10T10:22:55;33.03;;;27.70;;
51214;SDS011;63849;47.546;19.254;2022-12-10T10:25:23;32.17;;;27.80;;
51214;SDS011;63849;47.546;19.254;2022-12-10T10:27:49;30.50;;;26.23;;
51214;SDS011;63849;47.546;19.254;2022-12-10T10:30:16;32.95;;;27.33;;
51214;SDS011;63849;47.546;19.254;2022-12-10T10:32:45;34.95;;;29.05;;
51214;SDS011;63849;47.546;19.254;2022-12-10T10:37:51;101.43;;;30.13;;
51214;SDS011;63849;47.546;19.254;2022-12-10T10:40:30;35.97;;;27.23;;
51214;SDS011;63849;47.546;19.254;2022-12-10T10:43:03;31.70;;;26.98;;
51214;SDS011;63849;47.546;19.254;2022-12-10T10:48:14;32.70;;;29.08;;
51214;SDS011;63849;47.546;19.254;2022-12-10T10:53:48;35.00;;;28.40;;
51214;SDS011;63849;47.546;19.254;2022-12-10T10:56:21;33.40;;;27.90;;
51214;SDS011;63849;47.546;19.254;2022-12-10T10:59:05;27.92;;;24.00;;
51214;SDS011;63849;47.546;19.254;2022-12-10T11:04:11;32.45;;;25.08;;
51214;SDS011;63849;47.546;19.254;2022-12-10T11:06:39;32.13;;;28.13;;
51214;SDS011;63849;47.546;19.254;2022-12-10T11:09:06;29.08;;;25.85;;
51214;SDS011;63849;47.546;19.254;2022-12-10T11:11:33;35.47;;;28.27;;
51214;SDS011;63849;47.546;19.254;2022-12-10T11:19:36;27.65;;;23.20;;
51214;SDS011;63849;47.546;19.254;2022-12-10T11:22:15;27.38;;;22.50;;
51214;SDS011;63849;47.546;19.254;2022-12-10T11:24:42;28.08;;;23.67;;
51214;SDS011;63849;47.546;19.254;2022-12-10T11:27:12;27.67;;;23.35;;
51214;SDS011;63849;47.546;19.254;2022-12-10T11:30:03;29.88;;;24.10;;
51214;SDS011;63849;47.546;19.254;2022-12-10T11:32:58;27.75;;;23.27;;
51214;SDS011;63849;47.546;19.254;2022-12-10T11:36:16;27.45;;;22.70;;
51214;SDS011;63849;47.546;19.254;2022-12-10T11:41:34;30.23;;;24.83;;
51214;SDS011;63849;47.546;19.254;2022-12-10T11:47:39;23.73;;;20.10;;
51214;SDS011;63849;47.546;19.254;2022-12-10T11:53:36;29.25;;;21.60;;
51214;SDS011;63849;47.546;19.254;2022-12-10T11:58:17;36.90;;;25.65;;
51214;SDS011;63849;47.546;19.254;2022-12-10T12:00:53;30.70;;;21.88;;
51214;SDS011;63849;47.546;19.254;2022-12-10T12:08:50;60.80;;;43.00;;
51214;SDS011;63849;47.546;19.254;2022-12-10T12:14:19;44.55;;;32.13;;
51214;SDS011;63849;47.546;19.254;2022-12-10T12:16:55;41.35;;;27.33;;
51214;SDS011;63849;47.546;19.254;2022-12-10T12:19:34;39.00;;;27.83;;
51214;SDS011;63849;47.546;19.254;2022-12-10T12:22:07;37.40;;;26.02;;
51214;SDS011;63849;47.546;19.254;2022-12-10T12:24:52;35.65;;;24.20;;
51214;SDS011;63849;47.546;19.254;2022-12-10T12:27:25;41.83;;;30.17;;
51214;SDS011;63849;47.546;19.254;2022-12-10T12:30:10;39.92;;;26.42;;
51214;SDS011;63849;47.546;19.254;2022-12-10T12:40:57;41.95;;;30.20;;
51214;SDS011;63849;47.546;19.254;2022-12-10T12:46:00;40.38;;;27.63;;
51214;SDS011;63849;47.546;19.254;2022-12-10T12:48:34;53.60;;;35.97;;
51214;SDS011;63849;47.546;19.254;2022-12-10T12:51:18;52.70;;;33.92;;
51214;SDS011;63849;47.546;19.254;2022-12-10T12:53:48;45.42;;;30.08;;
51214;SDS011;63849;47.546;19.254;2022-12-10T12:56:19;47.33;;;30.80;;
51214;SDS011;63849;47.546;19.254;2022-12-10T13:01:50;56.72;;;36.80;;
51214;SDS011;63849;47.546;19.254;2022-12-10T13:04:29;57.38;;;34.33;;
51214;SDS011;63849;47.546;19.254;2022-12-10T13:09:46;69.32;;;44.55;;
51214;SDS011;63849;47.546;19.254;2022-12-10T13:12:24;49.55;;;34.88;;
51214;SDS011;63849;47.546;19.254;2022-12-10T13:17:25;47.75;;;31.80;;
51214;SDS011;63849;47.546;19.254;2022-12-10T13:23:04;47.25;;;30.65;;
51214;SDS011;63849;47.546;19.254;2022-12-10T13:28:30;104.78;;;64.30;;
51214;SDS011;63849;47.546;19.254;2022-12-10T13:31:17;55.67;;;36.63;;
51214;SDS011;63849;47.546;19.254;2022-12-10T13:39:10;57.10;;;38.28;;
51214;SDS011;63849;47.546;19.254;2022-12-10T13:42:32;45.15;;;31.42;;
51214;SDS011;63849;47.546;19.254;2022-12-10T13:45:06;43.65;;;30.65;;
51214;SDS011;63849;47.546;19.254;2022-12-10T14:01:12;35.95;;;26.27;;
51214;SDS011;63849;47.546;19.254;2022-12-10T14:03:55;56.25;;;41.85;;
51214;SDS011;63849;47.546;19.254;2022-12-10T14:06:51;39.45;;;26.88;;
51214;SDS011;63849;47.546;19.254;2022-12-10T14:12:34;39.60;;;28.73;;
51214;SDS011;63849;47.546;19.254;2022-12-10T14:15:03;41.92;;;29.52;;
51214;SDS011;63849;47.546;19.254;2022-12-10T14:17:36;37.03;;;26.10;;
51214;SDS011;63849;47.546;19.254;2022-12-10T14:20:06;39.47;;;28.70;;
51214;SDS011;63849;47.546;19.254;2022-12-10T14:22:37;47.22;;;37.30;;
51214;SDS011;63849;47.546;19.254;2022-12-10T14:25:13;47.67;;;33.03;;
51214;SDS011;63849;47.546;19.254;2022-12-10T14:27:42;51.00;;;32.97;;
51214;SDS011;63849;47.546;19.254;2022-12-10T14:30:43;48.88;;;31.17;;
51214;SDS011;63849;47.546;19.254;2022-12-10T14:33:07;43.38;;;31.20;;
51214;SDS011;63849;47.546;19.254;2022-12-10T14:35:37;38.95;;;28.42;;
51214;SDS011;63849;47.546;19.254;2022-12-10T14:38:03;43.72;;;29.50;;
51214;SDS011;63849;47.546;19.254;2022-12-10T14:43:07;43.42;;;29.42;;
51214;SDS011;63849;47.546;19.254;2022-12-10T14:45:41;45.72;;;31.65;;
51214;SDS011;63849;47.546;19.254;2022-12-10T14:48:12;43.97;;;30.60;;
51214;SDS011;63849;47.546;19.254;2022-12-10T14:50:38;45.45;;;30.98;;
51214;SDS011;63849;47.546;19.254;2022-12-10T14:53:05;44.75;;;31.23;;
51214;SDS011;63849;47.546;19.254;2022-12-10T14:55:39;43.88;;;30.88;;
51214;SDS011;63849;47.546;19.254;2022-12-10T14:58:05;43.90;;;31.33;;
51214;SDS011;63849;47.546;19.254;2022-12-10T15:00:39;44.10;;;30.98;;
51214;SDS011;63849;47.546;19.254;2022-12-10T15:03:09;49.47;;;33.42;;
51214;SDS011;63849;47.546;19.254;2022-12-10T15:05:40;46.88;;;32.10;;
51214;SDS011;63849;47.546;19.254;2022-12-10T15:08:06;42.90;;;32.28;;
51214;SDS011;63849;47.546;19.254;2022-12-10T15:10:41;42.05;;;30.60;;
51214;SDS011;63849;47.546;19.254;2022-12-10T15:13:19;44.40;;;32.20;;
51214;SDS011;63849;47.546;19.254;2022-12-10T15:15:53;52.03;;;37.53;;
51214;SDS011;63849;47.546;19.254;2022-12-10T15:18:20;47.28;;;35.22;;
51214;SDS011;63849;47.546;19.254;2022-12-10T15:23:42;52.03;;;37.15;;
51214;SDS011;63849;47.546;19.254;2022-12-10T15:26:13;46.47;;;32.13;;
51214;SDS011;63849;47.546;19.254;2022-12-10T15:28:52;45.43;;;32.60;;
51214;SDS011;63849;47.546;19.254;2022-12-10T15:31:38;43.35;;;30.40;;
51214;SDS011;63849;47.546;19.254;2022-12-10T15:34:08;45.05;;;32.38;;
51214;SDS011;63849;47.546;19.254;2022-12-10T15:41:43;45.90;;;31.25;;
51214;SDS011;63849;47.546;19.254;2022-12-10T15:44:23;44.95;;;31.90;;
51214;SDS011;63849;47.546;19.254;2022-12-10T15:47:03;43.50;;;29.83;;
51214;SDS011;63849;47.546;19.254;2022-12-10T15:49:42;44.22;;;32.35;;
51214;SDS011;63849;47.546;19.254;2022-12-10T15:52:12;45.67;;;32.03;;
51214;SDS011;63849;47.546;19.254;2022-12-10T15:54:40;44.42;;;30.60;;
51214;SDS011;63849;47.546;19.254;2022-12-10T15:59:42;52.17;;;36.10;;
51214;SDS011;63849;47.546;19.254;2022-12-10T16:04:47;63.53;;;41.22;;
51214;SDS011;63849;47.546;19.254;2022-12-10T16:07:12;64.60;;;43.58;;
51214;SDS011;63849;47.546;19.254;2022-12-10T16:09:41;54.20;;;36.35;;
51214;SDS011;63849;47.546;19.254;2022-12-10T16:12:07;65.80;;;42.30;;
51214;SDS011;63849;47.546;19.254;2022-12-10T16:14:42;55.42;;;36.15;;
51214;SDS011;63849;47.546;19.254;2022-12-10T16:17:13;55.85;;;36.10;;
51214;SDS011;63849;47.546;19.254;2022-12-10T16:19:39;50.70;;;35.08;;
51214;SDS011;63849;47.546;19.254;2022-12-10T16:22:05;47.28;;;32.17;;
51214;SDS011;63849;47.546;19.254;2022-12-10T16:24:31;44.58;;;31.48;;
51214;SDS011;63849;47.546;19.254;2022-12-10T16:26:57;45.67;;;34.15;;
51214;SDS011;63849;47.546;19.254;2022-12-10T16:29:22;48.90;;;36.75;;
51214;SDS011;63849;47.546;19.254;2022-12-10T16:31:48;55.40;;;35.33;;
51214;SDS011;63849;47.546;19.254;2022-12-10T16:34:15;52.63;;;33.28;;
51214;SDS011;63849;47.546;19.254;2022-12-10T16:36:40;48.38;;;32.60;;